Etusivu
METAR-TAF:

METAR-TAF

Lentoasemat :

Meridian Regional Airport (Key Field)

Meridian, Mississippi, Yhdysvallat

Leveyspiiri: 32-20-17N, Pituuspiiri: 088-44-52W, korkeus merenpinnasta: 90 m

Tämänhetkinen sää

Tämä raportti tehtiin 1 tunti ja 0 minuuttia sitten, kello 11.58 UTC
Tuuli 5 kn pohjoisesta
Lämpötila 3°C
Kosteus 87%
Ilmanpaine 1025 hPa
Näkyvyys: 16.1 km
selkeää

METAR: KMEI 151158Z 35005KT 10SM CLR 03/01 A3026 RMK AO2 SLP248 70002 T00330006 10067 20033 53003

Aika: 06:58 (12:58 UTC)

Sääennuste

Tämä raportti tehtiin 1 tunti ja 32 minuuttia sitten, kello 11.26 UTC
Ennuste voimassa 15. päivästä klo 12 UTC - 16. päivään klo 12 UTC
Tuuli 7 kn pohjoisesta
Näkyvyys: 10 km
selkeää
From 15. päivästä klo 1600 UTC
Tuuli 12 kn pohjoisesta puuskistuen 19 kn:hen
Näkyvyys: 10 km
selkeää
From 16. päivästä klo 0000 UTC
Tuuli 7 kn pohjoisesta
Näkyvyys: 10 km
selkeää

TAF: KMEI 151126Z 1512/1612 35007KT P6SM SKC FM151600 36012G19KT P6SM SKC FM160000 35007KT P6SM SKC

Säähavainnot ja -ennusteet yli 4000 lentoasemalta (METAR- ja TAF-raportit).

Käytössä olevat sääasemat on merkitty karttaan keltaisilla ja punaisilla pisteillä.

Aseta hiiri pisteen päälle nähdäksesi sääaseman nimen.

Klikkaa sitten nähdäksesi säähavainnot ja -ennusteet.

Kartan vaihtaminen: klikkaa mustalla rastilla varustettuja vihreitä pisteitä, niin voit zoomata sisään; viivalla varustettua vihreää pistettä, niin voit zoomata ulos tai vihreitä nuolia, niin pääset viereisille kartoille.


METAR-TAF: